Terminal Aerodrome Forecast
Issued by NWS

Home | Current Version | Previous Version | Text Only | Print | Product List | Glossary On
Versions: 1 2 3 4 5 6 7 8 9 10 11 12 13 14 15 16 17 18 19
000
FTUS44 KLZK 271100
TAFLLQ
TAF
KLLQ 271125Z 2712/2812 14005KT 5SM -RADZ SCT015 OVC025
      WS020/19045KT
      TEMPO 2712/2716 2SM RA BR OVC005
     FM271600 18005KT 4SM -RA BR BKN008 OVC020
     FM272200 35005KT 4SM -RA BR OVC005=

USA.gov is the U.S. government's official web portal to all federal, state and local government web resources and services.